Time;durP1;ratioP1;P1;durP2;ratioP2;P2;SDS_P1;SDS_P2;PMS_P1;PMS_P2;Temp;Humidity;BMP_temperature;BMP_pressure;BME280_temperature;BME280_humidity;BME280_pressure;Samples;Min_cycle;Max_cycle;Signal;HPM_P1;HPM_P2
2022/06/24 00:00:05;;;;;;;2.63;2.42;;;18.30;99.90;;;;;;5064541;28;20081;-50
2022/06/24 00:02:31;;;;;;;2.38;2.20;;;18.30;99.90;;;;;;5070230;28;20056;-51
2022/06/24 00:05:09;;;;;;;2.10;1.90;;;18.30;99.90;;;;;;5069944;28;20064;-50
2022/06/24 00:07:48;;;;;;;2.33;1.98;;;18.30;99.90;;;;;;5061305;28;20028;-54
2022/06/24 00:10:15;;;;;;;2.70;2.50;;;18.30;99.90;;;;;;5067872;28;20056;-49
2022/06/24 00:12:41;;;;;;;2.35;2.15;;;18.30;99.90;;;;;;5068076;28;20077;-53
2022/06/24 00:15:07;;;;;;;3.65;2.50;;;18.20;99.90;;;;;;5068778;28;20430;-51
2022/06/24 00:17:33;;;;;;;2.63;2.30;;;18.20;99.90;;;;;;5065572;28;20028;-51
2022/06/24 00:20:03;;;;;;;2.40;2.20;;;18.20;99.90;;;;;;5070856;28;20414;-51
2022/06/24 00:22:30;;;;;;;2.85;2.30;;;18.20;99.90;;;;;;5066503;28;20078;-52
2022/06/24 00:25:17;;;;;;;2.75;2.13;;;18.20;99.90;;;;;;5069340;28;20410;-53
2022/06/24 00:27:57;;;;;;;2.13;2.00;;;18.20;99.90;;;;;;5066202;28;20139;-49
2022/06/24 00:30:23;;;;;;;2.60;2.40;;;18.10;99.90;;;;;;5056853;28;20604;-52
2022/06/24 00:32:49;;;;;;;2.40;1.92;;;18.20;99.90;;;;;;5064594;28;20024;-50
2022/06/24 00:35:17;;;;;;;2.15;1.88;;;18.10;99.90;;;;;;5067725;28;20024;-51
2022/06/24 00:37:44;;;;;;;4.13;2.28;;;18.10;99.90;;;;;;5069823;28;20387;-49
2022/06/24 00:40:10;;;;;;;2.22;2.05;;;18.10;99.90;;;;;;5049064;28;20029;-51
2022/06/24 00:42:37;;;;;;;3.15;2.10;;;18.10;99.90;;;;;;5068958;28;20085;-52
2022/06/24 00:45:18;;;;;;;2.10;1.90;;;18.10;99.90;;;;;;5065598;28;20028;-50
2022/06/24 00:47:45;;;;;;;2.28;2.08;;;18.10;99.90;;;;;;5068250;28;20487;-49
2022/06/24 00:50:19;;;;;;;2.80;2.42;;;18.20;99.90;;;;;;5046082;28;20020;-52
2022/06/24 00:52:46;;;;;;;3.83;2.25;;;18.10;99.90;;;;;;5068669;28;20017;-49
2022/06/24 00:55:17;;;;;;;3.22;1.88;;;18.10;99.90;;;;;;5064223;28;20024;-53
2022/06/24 00:57:43;;;;;;;2.42;2.22;;;18.10;99.90;;;;;;5069637;28;20604;-50
2022/06/24 01:00:13;;;;;;;1.92;1.83;;;18.10;99.90;;;;;;5059983;28;20111;-55
2022/06/24 01:02:40;;;;;;;1.90;1.80;;;18.20;99.90;;;;;;5067270;28;20089;-49
2022/06/24 01:05:07;;;;;;;2.13;2.00;;;18.10;99.90;;;;;;5065439;28;20025;-52
2022/06/24 01:07:37;;;;;;;1.85;1.75;;;18.10;99.90;;;;;;5067925;28;20078;-50
2022/06/24 01:10:03;;;;;;;2.35;2.00;;;18.10;99.90;;;;;;5067825;28;20043;-49
2022/06/24 01:12:31;;;;;;;2.20;2.00;;;18.10;99.90;;;;;;5065591;28;20759;-51
2022/06/24 01:14:57;;;;;;;1.85;1.67;;;18.10;99.90;;;;;;5067313;28;20085;-50
2022/06/24 01:17:23;;;;;;;3.63;2.40;;;18.10;99.90;;;;;;5062965;28;20483;-51
2022/06/24 01:19:49;;;;;;;2.10;1.90;;;18.10;99.90;;;;;;5069435;28;20027;-53
2022/06/24 01:22:25;;;;;;;2.05;1.90;;;18.10;99.90;;;;;;5065827;28;20025;-50
2022/06/24 01:24:51;;;;;;;3.67;1.63;;;18.10;99.90;;;;;;5060830;28;20040;-50
2022/06/24 01:27:17;;;;;;;2.50;2.30;;;18.10;99.90;;;;;;5064589;28;20013;-50
2022/06/24 01:29:43;;;;;;;2.10;1.90;;;18.00;99.90;;;;;;5067443;28;20104;-54
2022/06/24 01:32:09;;;;;;;2.13;1.90;;;18.00;99.90;;;;;;5066743;28;20032;-51
2022/06/24 01:34:35;;;;;;;2.22;1.95;;;18.00;99.90;;;;;;5064263;28;20029;-50
2022/06/24 01:37:01;;;;;;;2.97;1.88;;;18.00;99.90;;;;;;5069355;28;20037;-49
2022/06/24 01:39:27;;;;;;;2.28;2.08;;;18.00;99.90;;;;;;5065917;28;20117;-49
2022/06/24 01:41:53;;;;;;;2.55;2.17;;;17.90;99.90;;;;;;5068009;28;20015;-49
2022/06/24 01:44:19;;;;;;;2.45;2.17;;;17.90;99.90;;;;;;5065313;28;20059;-51
2022/06/24 01:46:45;;;;;;;2.90;2.15;;;17.90;99.90;;;;;;5067330;28;20021;-52
2022/06/24 01:49:11;;;;;;;2.50;2.30;;;17.90;99.90;;;;;;5066489;28;20025;-52
2022/06/24 01:51:40;;;;;;;2.03;1.80;;;17.90;99.90;;;;;;5065770;28;20035;-53
2022/06/24 01:54:05;;;;;;;3.53;2.05;;;17.90;99.90;;;;;;5062625;28;20013;-50
2022/06/24 01:56:31;;;;;;;2.03;1.75;;;17.80;99.90;;;;;;5067566;28;20038;-51
2022/06/24 01:58:57;;;;;;;3.25;2.00;;;17.80;99.90;;;;;;5062584;28;20530;-49
2022/06/24 02:01:22;;;;;;;2.83;1.75;;;17.80;99.90;;;;;;5066239;28;20036;-49
2022/06/24 02:03:48;;;;;;;3.08;2.22;;;17.80;99.90;;;;;;5068857;28;20082;-51
2022/06/24 02:06:14;;;;;;;2.30;2.17;;;17.80;99.90;;;;;;5053004;28;20016;-52
2022/06/24 02:08:41;;;;;;;2.55;1.95;;;17.80;99.90;;;;;;5067662;28;20403;-51
2022/06/24 02:13:51;;;;;;;2.53;2.03;;;17.70;99.90;;;;;;5067270;28;20074;-52
2022/06/24 02:16:21;;;;;;;2.35;1.92;;;17.70;99.90;;;;;;5067819;28;20128;-51
2022/06/24 02:18:47;;;;;;;2.60;2.25;;;17.70;99.90;;;;;;5070510;28;20093;-51
2022/06/24 02:21:13;;;;;;;2.92;1.70;;;17.70;99.90;;;;;;5072468;28;20017;-54
2022/06/24 02:23:40;;;;;;;2.20;2.00;;;17.70;99.90;;;;;;5069599;28;20028;-49
2022/06/24 02:26:05;;;;;;;2.58;2.22;;;17.70;99.90;;;;;;5068136;28;20032;-50
2022/06/24 02:28:31;;;;;;;2.00;1.90;;;17.70;99.90;;;;;;5067211;28;20021;-53
2022/06/24 02:30:58;;;;;;;2.00;1.90;;;17.60;99.90;;;;;;5067563;28;20051;-52
2022/06/24 02:33:24;;;;;;;2.45;2.25;;;17.60;99.90;;;;;;5058520;28;20029;-49
2022/06/24 02:35:50;;;;;;;2.28;2.05;;;17.60;99.90;;;;;;5064112;28;20029;-53
2022/06/24 02:38:16;;;;;;;4.53;2.45;;;17.70;99.90;;;;;;5064882;28;20113;-49
2022/06/24 02:40:45;;;;;;;2.28;1.90;;;17.70;99.90;;;;;;5070486;28;20492;-49
2022/06/24 02:43:24;;;;;;;4.10;2.35;;;17.80;99.90;;;;;;5061026;28;20025;-52
2022/06/24 02:46:15;;;;;;;3.33;2.15;;;17.70;99.90;;;;;;5068653;28;20024;-53
2022/06/24 02:48:42;;;;;;;4.13;2.40;;;17.70;99.90;;;;;;5061108;28;20066;-51
2022/06/24 02:51:16;;;;;;;1.90;1.80;;;17.80;99.90;;;;;;5063617;28;20032;-50
2022/06/24 02:53:43;;;;;;;1.92;1.67;;;17.80;99.90;;;;;;5062965;28;20017;-54
2022/06/24 02:56:13;;;;;;;3.17;2.28;;;17.90;99.90;;;;;;5063602;28;20035;-49
2022/06/24 02:58:40;;;;;;;2.22;2.03;;;17.90;99.90;;;;;;5062442;28;20029;-53
2022/06/24 03:01:06;;;;;;;3.85;2.42;;;17.90;99.90;;;;;;5063080;28;20029;-51
2022/06/24 03:03:33;;;;;;;2.72;2.08;;;17.90;99.90;;;;;;5065499;28;20621;-52
2022/06/24 03:05:59;;;;;;;3.42;2.28;;;17.90;99.90;;;;;;5060588;28;20092;-51
2022/06/24 03:08:26;;;;;;;3.50;2.40;;;17.90;99.90;;;;;;5063644;28;20078;-51
2022/06/24 03:10:52;;;;;;;2.20;2.00;;;17.90;99.90;;;;;;5048220;28;20029;-51
2022/06/24 03:13:18;;;;;;;3.58;1.95;;;17.90;99.90;;;;;;5063745;28;20044;-49
2022/06/24 03:15:45;;;;;;;3.67;2.00;;;17.90;99.90;;;;;;5062350;28;20062;-53
2022/06/24 03:18:11;;;;;;;3.28;2.53;;;17.90;99.90;;;;;;5062131;28;20020;-52
2022/06/24 03:20:37;;;;;;;2.00;1.90;;;17.90;99.90;;;;;;5065497;28;20030;-51
2022/06/24 03:23:03;;;;;;;2.15;1.50;;;17.90;99.90;;;;;;5062157;28;20035;-50
2022/06/24 03:25:28;;;;;;;2.67;1.88;;;17.80;99.90;;;;;;5062064;28;20028;-52
2022/06/24 03:27:54;;;;;;;2.42;1.88;;;17.80;99.90;;;;;;5060990;28;20024;-53
2022/06/24 03:30:19;;;;;;;1.80;1.70;;;17.80;99.90;;;;;;5063666;28;20039;-55
2022/06/24 03:32:45;;;;;;;2.20;2.00;;;17.70;99.90;;;;;;5062754;28;20399;-53
2022/06/24 03:35:11;;;;;;;2.17;2.08;;;17.80;99.90;;;;;;5063285;28;20025;-51
2022/06/24 03:37:36;;;;;;;2.88;2.05;;;17.80;99.90;;;;;;5062737;28;20367;-50
2022/06/24 03:40:03;;;;;;;2.00;1.90;;;17.70;99.90;;;;;;5061783;28;20029;-51
2022/06/24 03:42:29;;;;;;;2.17;1.92;;;17.70;99.90;;;;;;5063200;28;20035;-54
2022/06/24 03:44:55;;;;;;;2.13;1.73;;;17.70;99.90;;;;;;5061084;28;20025;-49
2022/06/24 03:47:21;;;;;;;2.97;1.83;;;17.60;99.90;;;;;;5063454;28;20044;-49
2022/06/24 03:49:46;;;;;;;2.13;1.92;;;17.60;99.90;;;;;;5061543;28;20028;-53
2022/06/24 03:52:12;;;;;;;2.10;1.98;;;17.60;99.90;;;;;;5062957;28;20013;-52
2022/06/24 03:54:38;;;;;;;3.58;2.35;;;17.60;99.90;;;;;;5063342;28;20057;-51
2022/06/24 03:57:04;;;;;;;1.77;1.67;;;17.60;99.90;;;;;;5059225;28;20032;-52
2022/06/24 03:59:30;;;;;;;2.38;2.22;;;17.60;99.90;;;;;;5063337;28;20687;-52
2022/06/24 04:01:57;;;;;;;3.17;2.10;;;17.60;99.90;;;;;;5062348;28;20032;-54
2022/06/24 04:04:23;;;;;;;1.90;1.80;;;17.60;99.90;;;;;;5062990;28;20037;-54
2022/06/24 04:06:49;;;;;;;2.33;2.13;;;17.50;99.90;;;;;;5060782;28;20058;-49
2022/06/24 04:09:14;;;;;;;2.92;2.17;;;17.50;99.90;;;;;;5062886;28;20056;-51
2022/06/24 04:11:40;;;;;;;3.33;2.13;;;17.50;99.90;;;;;;5062065;28;20486;-52
2022/06/24 04:14:06;;;;;;;2.55;2.35;;;17.60;99.90;;;;;;5060263;28;20021;-52
2022/06/24 04:16:31;;;;;;;5.78;2.10;;;17.60;99.90;;;;;;5062907;28;20036;-50
2022/06/24 04:18:57;;;;;;;4.38;1.95;;;17.60;99.90;;;;;;5062260;28;20032;-53
2022/06/24 04:21:23;;;;;;;3.08;2.38;;;17.60;99.90;;;;;;5062452;28;20020;-53
2022/06/24 04:23:49;;;;;;;2.28;1.80;;;17.60;99.90;;;;;;5060378;28;20063;-51
2022/06/24 04:26:15;;;;;;;2.42;2.17;;;17.70;99.90;;;;;;5048561;28;20078;-52
2022/06/24 04:28:41;;;;;;;3.10;2.60;;;17.70;99.90;;;;;;5062155;28;20051;-51
2022/06/24 04:31:06;;;;;;;5.65;2.33;;;17.70;99.90;;;;;;5061526;28;20490;-55
2022/06/24 04:33:32;;;;;;;2.38;2.25;;;17.70;99.90;;;;;;5062273;28;20017;-53
2022/06/24 04:35:58;;;;;;;3.28;2.22;;;17.80;99.90;;;;;;5062127;28;20068;-54
2022/06/24 04:38:23;;;;;;;2.13;2.03;;;17.90;99.90;;;;;;5062061;28;20032;-50
2022/06/24 04:40:49;;;;;;;2.60;2.40;;;17.90;99.90;;;;;;5062092;28;20025;-51
2022/06/24 04:43:15;;;;;;;2.30;2.10;;;17.90;99.90;;;;;;5061243;28;20040;-52
2022/06/24 04:45:42;;;;;;;2.47;2.15;;;18.00;99.90;;;;;;5062078;28;20579;-54
2022/06/24 04:48:08;;;;;;;2.47;2.28;;;18.00;99.90;;;;;;5059326;28;20028;-50
2022/06/24 04:50:34;;;;;;;2.65;2.45;;;18.10;99.90;;;;;;5062612;28;20024;-50
2022/06/24 04:53:00;;;;;;;2.40;2.25;;;18.10;99.90;;;;;;5059961;28;20096;-52
2022/06/24 04:55:25;;;;;;;2.53;1.95;;;18.20;99.90;;;;;;5062300;28;20107;-51
2022/06/24 04:57:51;;;;;;;2.85;2.53;;;18.20;99.90;;;;;;5061378;28;20406;-50
2022/06/24 05:00:17;;;;;;;4.22;2.60;;;18.30;99.90;;;;;;5061817;28;20020;-50
2022/06/24 05:02:43;;;;;;;2.55;2.35;;;18.30;99.90;;;;;;5061318;28;20028;-51
2022/06/24 05:05:10;;;;;;;3.67;2.60;;;18.40;99.90;;;;;;5059211;28;20052;-53
2022/06/24 05:07:36;;;;;;;2.20;2.03;;;18.50;99.90;;;;;;5062064;28;20017;-51
2022/06/24 05:10:02;;;;;;;2.60;2.28;;;18.60;99.90;;;;;;5059857;28;20599;-48
2022/06/24 05:12:28;;;;;;;2.60;2.40;;;18.60;99.90;;;;;;5061108;28;20059;-51
2022/06/24 05:14:54;;;;;;;4.97;2.45;;;18.70;99.90;;;;;;5061094;28;20051;-53
2022/06/24 05:17:19;;;;;;;2.83;2.63;;;18.80;99.90;;;;;;5060687;28;20044;-50
2022/06/24 05:19:45;;;;;;;3.30;2.70;;;18.90;99.90;;;;;;5061345;28;20423;-50
2022/06/24 05:22:10;;;;;;;3.10;2.38;;;19.00;99.90;;;;;;5057067;28;20029;-54
2022/06/24 05:24:36;;;;;;;3.10;2.80;;;19.10;99.90;;;;;;5060267;28;20108;-50
2022/06/24 05:27:02;;;;;;;4.13;3.00;;;19.20;99.90;;;;;;5059692;28;20621;-50
2022/06/24 05:29:28;;;;;;;3.40;2.97;;;19.30;99.90;;;;;;5062138;28;20033;-50
2022/06/24 05:31:53;;;;;;;4.43;2.95;;;19.40;99.90;;;;;;5060630;28;20535;-49
2022/06/24 05:34:19;;;;;;;3.17;2.97;;;19.50;99.90;;;;;;5060101;28;20017;-50
2022/06/24 05:36:45;;;;;;;5.07;2.50;;;19.70;99.90;;;;;;5061503;28;20021;-54
2022/06/24 05:39:11;;;;;;;4.68;3.00;;;19.80;99.90;;;;;;5058446;28;20501;-51
2022/06/24 05:41:41;;;;;;;4.20;2.80;;;20.00;99.90;;;;;;5057528;28;20037;-49
2022/06/24 05:44:07;;;;;;;3.33;2.60;;;20.10;99.90;;;;;;5067963;28;20021;-51
2022/06/24 05:46:33;;;;;;;2.72;2.53;;;20.20;99.90;;;;;;5060471;28;20026;-52
2022/06/24 05:48:58;;;;;;;2.85;2.55;;;20.40;99.90;;;;;;5058717;28;20028;-50
2022/06/24 05:51:24;;;;;;;3.60;2.80;;;20.50;99.90;;;;;;5062272;28;20059;-51
2022/06/24 05:56:34;;;;;;;3.22;3.03;;;20.80;99.90;;;;;;5061532;28;20112;-54
2022/06/24 05:59:00;;;;;;;3.08;2.60;;;20.90;99.90;;;;;;5059303;28;20130;-55
2022/06/24 06:01:27;;;;;;;4.82;3.05;;;21.00;99.90;;;;;;5063669;28;20083;-54
2022/06/24 06:03:53;;;;;;;4.57;2.70;;;21.10;99.90;;;;;;5058128;28;20451;-54
2022/06/24 06:06:19;;;;;;;4.93;3.00;;;21.20;99.90;;;;;;5061123;28;20758;-49
2022/06/24 06:08:44;;;;;;;2.90;2.65;;;21.30;99.90;;;;;;5058929;28;20029;-55
2022/06/24 06:11:19;;;;;;;2.80;2.60;;;21.40;99.90;;;;;;5060539;28;20038;-50
2022/06/24 06:13:46;;;;;;;4.25;2.70;;;21.40;99.90;;;;;;5060026;28;20109;-53
2022/06/24 06:16:12;;;;;;;3.03;2.72;;;21.50;99.90;;;;;;5062635;28;20482;-54
2022/06/24 06:18:38;;;;;;;3.00;2.70;;;21.60;99.90;;;;;;5060375;28;20037;-52
2022/06/24 06:21:06;;;;;;;3.33;3.05;;;21.50;99.90;;;;;;5059306;28;20021;-55
2022/06/24 06:23:32;;;;;;;3.22;2.80;;;21.60;99.90;;;;;;5060950;28;20551;-54
2022/06/24 06:26:00;;;;;;;3.40;3.10;;;21.70;99.90;;;;;;5055325;28;20040;-53
2022/06/24 06:28:25;;;;;;;5.35;2.95;;;21.80;99.90;;;;;;5061185;28;20103;-52
2022/06/24 06:30:51;;;;;;;3.80;3.50;;;21.90;99.90;;;;;;5059508;28;20100;-52
2022/06/24 06:33:17;;;;;;;3.45;2.83;;;22.00;99.90;;;;;;5060474;28;20051;-50
2022/06/24 06:35:43;;;;;;;3.13;2.80;;;22.10;99.90;;;;;;5058132;28;20109;-52
2022/06/24 06:38:09;;;;;;;3.25;3.03;;;22.20;99.90;;;;;;5060183;28;20017;-50
2022/06/24 06:40:38;;;;;;;6.15;3.40;;;22.40;99.90;;;;;;5049019;28;20028;-51
2022/06/24 06:43:09;;;;;;;3.13;2.80;;;22.40;99.90;;;;;;5059996;28;20541;-54
2022/06/24 06:45:35;;;;;;;4.18;3.22;;;22.60;99.90;;;;;;5060562;28;20483;-49
2022/06/24 06:48:01;;;;;;;5.13;3.22;;;22.60;99.90;;;;;;5057546;28;20025;-50
2022/06/24 06:50:27;;;;;;;4.70;2.80;;;22.70;99.90;;;;;;5060177;28;20029;-49
2022/06/24 06:52:53;;;;;;;3.03;2.75;;;22.70;99.90;;;;;;5059988;28;20021;-52
2022/06/24 06:55:18;;;;;;;3.95;2.90;;;22.80;99.90;;;;;;5059835;28;20523;-49
2022/06/24 06:57:44;;;;;;;2.78;2.63;;;22.80;99.90;;;;;;5060460;28;20047;-50
2022/06/24 07:00:10;;;;;;;4.07;2.92;;;22.90;99.90;;;;;;5059751;28;20529;-50
2022/06/24 07:02:37;;;;;;;3.13;2.78;;;22.90;99.90;;;;;;5064070;28;20056;-49
2022/06/24 07:05:03;;;;;;;2.97;2.65;;;23.00;99.90;;;;;;5060885;28;20135;-53
2022/06/24 07:07:29;;;;;;;3.33;3.03;;;23.20;99.90;;;;;;5064099;28;20031;-49
2022/06/24 07:09:54;;;;;;;3.65;3.25;;;23.30;99.90;;;;;;5061802;28;20032;-50
2022/06/24 07:12:21;;;;;;;3.28;2.85;;;23.40;99.90;;;;;;5063554;28;20044;-49
2022/06/24 07:14:46;;;;;;;2.72;2.53;;;23.50;99.90;;;;;;5066865;28;20052;-54
2022/06/24 07:17:12;;;;;;;3.20;2.95;;;23.80;99.90;;;;;;5055538;28;20032;-49
2022/06/24 07:19:37;;;;;;;3.85;3.35;;;24.00;99.90;;;;;;5063814;28;20086;-49
2022/06/24 07:22:04;;;;;;;3.88;3.58;;;24.20;99.90;;;;;;5061361;28;20074;-55
2022/06/24 07:24:30;;;;;;;5.07;3.90;;;24.50;99.90;;;;;;5062434;28;20112;-51
2022/06/24 07:26:55;;;;;;;5.95;3.00;;;24.70;99.90;;;;;;5061632;28;20107;-52
2022/06/24 07:29:21;;;;;;;4.18;2.95;;;24.90;99.90;;;;;;5063215;28;20020;-51
2022/06/24 07:31:47;;;;;;;3.60;2.80;;;25.20;99.00;;;;;;5063441;28;20551;-53
2022/06/24 07:34:17;;;;;;;3.80;2.95;;;25.40;99.60;;;;;;5063071;28;20487;-53
2022/06/24 07:36:42;;;;;;;3.25;2.95;;;25.60;98.60;;;;;;5063849;28;20027;-53
2022/06/24 07:39:09;;;;;;;2.97;2.78;;;25.70;97.20;;;;;;5059472;28;21420;-52
2022/06/24 07:41:35;;;;;;;3.70;3.40;;;25.90;97.90;;;;;;5058582;28;20025;-52
2022/06/24 07:44:01;;;;;;;6.05;3.13;;;26.10;96.70;;;;;;5067808;28;20115;-50
2022/06/24 07:46:27;;;;;;;4.72;3.08;;;26.20;97.10;;;;;;5060095;28;20036;-52
2022/06/24 07:48:53;;;;;;;3.90;3.60;;;26.40;96.00;;;;;;5060516;28;20032;-51
2022/06/24 07:51:19;;;;;;;2.90;2.70;;;26.40;94.30;;;;;;5065045;28;20013;-54
2022/06/24 07:53:47;;;;;;;4.20;2.67;;;26.60;94.90;;;;;;5059856;28;20048;-51
2022/06/24 07:58:57;;;;;;;3.13;2.90;;;26.90;93.60;;;;;;5058923;28;20071;-55
2022/06/24 08:01:23;;;;;;;3.65;2.88;;;27.00;93.30;;;;;;5065810;28;20069;-50
2022/06/24 08:03:49;;;;;;;3.38;3.17;;;27.20;93.00;;;;;;5059394;28;20025;-55
2022/06/24 08:06:15;;;;;;;5.28;3.28;;;27.30;92.80;;;;;;5063220;28;20078;-54
2022/06/24 08:08:41;;;;;;;3.83;3.53;;;27.50;91.70;;;;;;5061623;28;20538;-55
2022/06/24 08:11:06;;;;;;;3.30;3.00;;;27.50;91.10;;;;;;5061946;28;20024;-56
2022/06/24 08:13:32;;;;;;;3.65;3.25;;;27.60;91.10;;;;;;5062586;28;20475;-52
2022/06/24 08:15:59;;;;;;;4.07;3.72;;;27.70;91.00;;;;;;5060495;28;20037;-54
2022/06/24 08:18:25;;;;;;;3.28;2.88;;;27.80;90.00;;;;;;5065666;28;20494;-54
2022/06/24 08:20:51;;;;;;;3.75;3.38;;;27.90;90.50;;;;;;5058567;28;20025;-54
2022/06/24 08:23:16;;;;;;;3.80;3.40;;;28.00;90.80;;;;;;5061472;28;20077;-53
2022/06/24 08:25:42;;;;;;;3.80;3.30;;;28.20;89.90;;;;;;5061248;28;20039;-53
2022/06/24 08:28:07;;;;;;;4.35;3.28;;;28.40;89.90;;;;;;5060442;28;20029;-54
2022/06/24 08:30:34;;;;;;;7.05;3.92;;;28.60;89.50;;;;;;5063442;28;20025;-57
2022/06/24 08:33:00;;;;;;;4.07;2.85;;;28.70;86.20;;;;;;5059931;28;20626;-51
2022/06/24 08:35:26;;;;;;;3.35;3.05;;;28.80;88.00;;;;;;5065135;28;20029;-55
2022/06/24 08:37:51;;;;;;;5.55;3.60;;;29.00;87.70;;;;;;5058949;28;20024;-56
2022/06/24 08:40:19;;;;;;;3.00;2.80;;;29.20;86.70;;;;;;5062216;28;20031;-55
2022/06/24 08:42:47;;;;;;;3.22;3.03;;;29.30;86.70;;;;;;5061630;28;20441;-55
2022/06/24 08:45:14;;;;;;;3.50;3.20;;;29.40;85.70;;;;;;5061342;28;20124;-52
2022/06/24 08:47:40;;;;;;;4.10;2.75;;;29.50;84.30;;;;;;5052824;28;20041;-53
2022/06/24 08:50:09;;;;;;;3.60;3.30;;;29.60;85.10;;;;;;5061160;28;20055;-57
2022/06/24 08:52:35;;;;;;;4.32;3.20;;;29.60;82.40;;;;;;5058188;28;20025;-54
2022/06/24 08:55:03;;;;;;;5.57;3.55;;;29.60;82.20;;;;;;5065187;28;20056;-52
2022/06/24 08:57:30;;;;;;;3.70;3.40;;;29.60;80.40;;;;;;5062346;28;20386;-53
2022/06/24 08:59:56;;;;;;;6.32;3.33;;;29.70;82.10;;;;;;5060484;28;20542;-52
2022/06/24 09:02:21;;;;;;;3.63;3.10;;;29.90;83.10;;;;;;5061769;28;20100;-53
2022/06/24 09:04:47;;;;;;;4.07;3.08;;;30.10;82.70;;;;;;5061637;28;20656;-54
2022/06/24 09:07:26;;;;;;;3.60;3.10;;;30.30;80.70;;;;;;5061746;28;20032;-55
2022/06/24 09:09:59;;;;;;;3.88;3.05;;;30.30;79.80;;;;;;5061167;28;20060;-51
2022/06/24 09:12:30;;;;;;;4.45;3.33;;;30.20;79.20;;;;;;5053185;28;20031;-54
2022/06/24 09:15:00;;;;;;;3.80;3.50;;;30.30;79.40;;;;;;5060650;28;20524;-50
2022/06/24 09:17:30;;;;;;;3.92;2.97;;;30.30;79.30;;;;;;5060922;28;20029;-56
2022/06/24 09:20:17;;;;;;;4.50;3.17;;;30.50;78.60;;;;;;5060482;28;20030;-51
2022/06/24 09:22:43;;;;;;;3.95;2.97;;;30.70;78.70;;;;;;5053004;28;20032;-52
2022/06/24 09:25:09;;;;;;;4.47;3.97;;;30.90;78.40;;;;;;5063990;28;20383;-52
2022/06/24 09:27:40;;;;;;;4.70;3.42;;;31.00;77.90;;;;;;5058045;28;20017;-53
2022/06/24 09:30:07;;;;;;;4.32;3.50;;;31.00;78.10;;;;;;5065008;28;20059;-51
2022/06/24 09:32:32;;;;;;;5.28;2.85;;;31.20;77.80;;;;;;5053844;28;20028;-53
2022/06/24 09:35:06;;;;;;;3.53;3.30;;;31.30;76.70;;;;;;5065928;28;20025;-53
2022/06/24 09:37:44;;;;;;;4.30;3.15;;;31.40;76.00;;;;;;5058162;28;20013;-53
2022/06/24 09:40:30;;;;;;;4.32;3.40;;;31.40;76.30;;;;;;5060908;28;20139;-51
2022/06/24 09:43:06;;;;;;;3.67;3.38;;;31.40;75.20;;;;;;5058622;28;20045;-52
2022/06/24 09:45:46;;;;;;;3.28;3.08;;;31.50;75.30;;;;;;5061376;28;20021;-51
2022/06/24 09:48:29;;;;;;;4.03;3.63;;;31.50;76.40;;;;;;5060486;28;20082;-55
2022/06/24 09:50:58;;;;;;;3.72;3.47;;;31.60;74.40;;;;;;5060568;28;20113;-52
2022/06/24 09:53:28;;;;;;;3.53;3.20;;;31.50;75.10;;;;;;5060682;28;20082;-56
2022/06/24 09:55:55;;;;;;;6.28;3.90;;;31.50;75.20;;;;;;5060269;28;20035;-54
2022/06/24 09:58:22;;;;;;;4.00;3.63;;;31.50;75.90;;;;;;5060889;28;20025;-53
2022/06/24 10:00:50;;;;;;;7.60;3.78;;;31.50;75.10;;;;;;5060957;28;20493;-52
2022/06/24 10:03:16;;;;;;;3.50;3.20;;;31.40;75.50;;;;;;5055051;28;20109;-54
2022/06/24 10:05:51;;;;;;;5.38;3.70;;;31.40;75.00;;;;;;5062127;28;20025;-52
2022/06/24 10:08:19;;;;;;;4.97;3.38;;;31.30;76.20;;;;;;5053840;28;20020;-50
2022/06/24 10:10:56;;;;;;;3.90;3.60;;;31.20;75.20;;;;;;5063781;28;20058;-49
2022/06/24 10:13:24;;;;;;;6.18;3.88;;;31.30;75.80;;;;;;5054439;28;20013;-52
2022/06/24 10:15:51;;;;;;;3.95;3.35;;;31.30;76.90;;;;;;5064763;28;20490;-52
2022/06/24 10:18:21;;;;;;;4.05;3.55;;;31.30;75.60;;;;;;5057127;28;20503;-52
2022/06/24 10:20:47;;;;;;;7.45;3.50;;;31.30;76.20;;;;;;5065153;28;20518;-55
2022/06/24 10:23:36;;;;;;;3.80;3.50;;;31.40;76.30;;;;;;5056609;28;20052;-51
2022/06/24 10:26:28;;;;;;;3.65;3.35;;;31.40;75.90;;;;;;5059166;28;20086;-56
2022/06/24 10:29:00;;;;;;;4.43;3.65;;;31.30;75.20;;;;;;5058648;28;20475;-55
2022/06/24 10:31:48;;;;;;;3.42;3.22;;;31.50;76.00;;;;;;5060363;28;20051;-57
2022/06/24 10:34:22;;;;;;;3.72;3.42;;;31.50;72.80;;;;;;5042348;28;20059;-56
2022/06/24 10:36:58;;;;;;;4.00;3.33;;;31.40;72.60;;;;;;5062340;28;20036;-56
2022/06/24 10:39:29;;;;;;;3.75;3.30;;;31.30;73.30;;;;;;5059974;28;20024;-54
2022/06/24 10:41:59;;;;;;;3.60;3.30;;;31.20;73.70;;;;;;5064001;28;20025;-54
2022/06/24 10:44:29;;;;;;;4.25;3.88;;;31.20;73.50;;;;;;5062931;28;20030;-55
2022/06/24 10:47:10;;;;;;;3.50;3.17;;;31.10;73.00;;;;;;5062552;28;20055;-54
2022/06/24 10:50:04;;;;;;;3.83;3.38;;;30.90;73.80;;;;;;5061674;28;20051;-53
2022/06/24 10:52:47;;;;;;;4.50;3.30;;;30.90;74.10;;;;;;5056697;28;20021;-55
2022/06/24 10:55:20;;;;;;;3.88;3.50;;;30.90;73.00;;;;;;5064136;28;20023;-53
2022/06/24 10:57:52;;;;;;;3.78;3.47;;;30.90;73.20;;;;;;5063543;28;20498;-53
2022/06/24 11:00:25;;;;;;;3.83;3.53;;;31.00;73.50;;;;;;5053828;28;20476;-54
2022/06/24 11:03:12;;;;;;;5.07;3.75;;;31.10;73.50;;;;;;5063648;28;20036;-52
2022/06/24 11:05:46;;;;;;;4.25;3.80;;;31.20;74.30;;;;;;5062159;28;20405;-57
2022/06/24 11:08:14;;;;;;;3.83;3.53;;;31.30;74.10;;;;;;5060536;28;20040;-51
2022/06/24 11:10:41;;;;;;;4.63;3.58;;;31.30;73.50;;;;;;5066057;28;20097;-52
2022/06/24 11:13:07;;;;;;;4.18;3.70;;;31.30;73.60;;;;;;5060849;28;20017;-54
2022/06/24 11:15:45;;;;;;;4.50;3.20;;;31.40;71.90;;;;;;5065682;28;20035;-54
2022/06/24 11:18:15;;;;;;;3.75;3.45;;;31.50;72.20;;;;;;5060924;28;20386;-52
2022/06/24 11:20:54;;;;;;;5.60;3.30;;;31.50;71.30;;;;;;5067568;28;20095;-56
2022/06/24 11:23:21;;;;;;;4.25;3.85;;;31.60;71.40;;;;;;5054887;28;20044;-50
2022/06/24 11:25:50;;;;;;;4.55;4.20;;;31.70;72.40;;;;;;5059171;28;20025;-56
2022/06/24 11:28:25;;;;;;;4.28;3.50;;;31.70;70.80;;;;;;5054325;28;20020;-55
2022/06/24 11:30:52;;;;;;;3.65;3.45;;;31.60;71.80;;;;;;5057491;28;20029;-56
2022/06/24 11:33:19;;;;;;;4.68;3.72;;;31.70;72.00;;;;;;5065292;28;20053;-54
2022/06/24 11:35:49;;;;;;;4.65;3.83;;;31.60;70.60;;;;;;5060211;28;20021;-51
2022/06/24 11:38:16;;;;;;;4.10;3.65;;;31.60;71.80;;;;;;5052395;28;20391;-53
2022/06/24 11:40:42;;;;;;;4.25;3.85;;;31.60;70.60;;;;;;5060372;28;20017;-52
2022/06/24 11:43:13;;;;;;;5.38;4.07;;;31.60;73.00;;;;;;5062279;28;20039;-54
2022/06/24 11:45:41;;;;;;;4.97;4.07;;;31.80;73.00;;;;;;5063168;28;20029;-53
2022/06/24 11:48:09;;;;;;;4.32;3.90;;;31.80;70.30;;;;;;5061090;28;20032;-55
2022/06/24 11:50:35;;;;;;;6.30;3.95;;;31.70;70.60;;;;;;5064630;28;20114;-56
2022/06/24 11:53:03;;;;;;;4.57;4.22;;;31.80;71.70;;;;;;5061347;28;20024;-50
2022/06/24 11:55:34;;;;;;;8.13;4.18;;;31.80;70.60;;;;;;5063363;28;20064;-50
2022/06/24 11:58:01;;;;;;;5.75;3.78;;;31.80;69.70;;;;;;5061686;28;20538;-52
2022/06/24 12:00:30;;;;;;;3.97;3.60;;;31.80;72.70;;;;;;5063419;28;20029;-50
2022/06/24 12:02:58;;;;;;;4.43;4.03;;;32.00;71.10;;;;;;5062782;28;20099;-54
2022/06/24 12:05:26;;;;;;;5.18;3.80;;;32.00;70.00;;;;;;5063090;28;20024;-54
2022/06/24 12:07:52;;;;;;;4.15;3.75;;;32.00;70.00;;;;;;5062564;28;20447;-51
2022/06/24 12:10:18;;;;;;;3.92;3.63;;;32.10;69.80;;;;;;5062011;28;20017;-54
2022/06/24 12:12:55;;;;;;;5.18;3.72;;;32.30;70.00;;;;;;5062938;28;20528;-53
2022/06/24 12:15:34;;;;;;;5.68;3.58;;;32.40;68.10;;;;;;5062317;28;20025;-53
2022/06/24 12:18:00;;;;;;;3.80;3.47;;;32.10;65.60;;;;;;5059974;28;20020;-50
2022/06/24 12:20:29;;;;;;;4.05;3.80;;;32.00;66.40;;;;;;5064443;28;20063;-51
2022/06/24 12:23:18;;;;;;;5.28;4.78;;;31.70;67.30;;;;;;5059885;28;20031;-50
2022/06/24 12:25:47;;;;;;;5.90;3.63;;;31.60;68.10;;;;;;5055072;28;20033;-52
2022/06/24 12:28:24;;;;;;;4.80;3.92;;;31.30;67.80;;;;;;5064369;28;20098;-54
2022/06/24 12:30:58;;;;;;;4.85;3.95;;;31.20;68.80;;;;;;5056014;28;20507;-56
2022/06/24 12:33:27;;;;;;;7.07;4.20;;;31.00;68.20;;;;;;5064853;28;20043;-53
2022/06/24 12:36:10;;;;;;;6.28;4.20;;;30.90;68.60;;;;;;5056536;28;20487;-53
2022/06/24 12:38:38;;;;;;;5.00;4.50;;;30.70;69.50;;;;;;5064238;28;20558;-49
2022/06/24 12:41:12;;;;;;;5.05;4.45;;;30.60;70.60;;;;;;5061040;28;20498;-52
2022/06/24 12:43:51;;;;;;;4.53;4.13;;;30.40;72.60;;;;;;5062106;28;20512;-51
2022/06/24 12:46:17;;;;;;;4.68;4.28;;;30.10;74.30;;;;;;5049479;28;20497;-49
2022/06/24 12:51:27;;;;;;;5.03;4.55;;;29.20;80.30;;;;;;5054027;28;20073;-53
2022/06/24 12:53:54;;;;;;;7.05;5.30;;;28.70;82.20;;;;;;5061338;28;20016;-53
2022/06/24 12:56:22;;;;;;;7.95;4.80;;;28.30;83.90;;;;;;5058405;28;20021;-56
2022/06/24 12:58:52;;;;;;;5.32;4.35;;;28.00;86.20;;;;;;5065273;28;20036;-52
2022/06/24 13:01:19;;;;;;;5.25;4.80;;;27.80;87.50;;;;;;5053941;28;20569;-50
2022/06/24 13:03:45;;;;;;;4.80;4.38;;;27.40;88.30;;;;;;5066048;28;20035;-51